createdAt,value
2019-04-04T00:00:28.384Z,4.80
2019-04-04T00:01:28.371Z,4.60
2019-04-04T00:02:28.359Z,4.60
2019-04-04T00:03:28.352Z,5.00
2019-04-04T00:04:28.351Z,4.80
2019-04-04T00:05:28.352Z,4.90
2019-04-04T00:06:28.316Z,4.90
2019-04-04T00:07:29.093Z,4.60
2019-04-04T00:08:30.768Z,4.60
2019-04-04T00:09:28.290Z,4.80
2019-04-04T00:10:28.293Z,4.80
2019-04-04T00:11:28.249Z,5.40
2019-04-04T00:12:28.243Z,5.00
2019-04-04T00:13:28.239Z,5.40
2019-04-04T00:14:28.235Z,5.30
2019-04-04T00:15:28.229Z,5.60
2019-04-04T00:16:28.250Z,5.60
2019-04-04T00:17:28.185Z,5.20
2019-04-04T00:18:28.173Z,5.20
2019-04-04T00:19:29.936Z,5.20
2019-04-04T00:20:29.816Z,5.40
2019-04-04T00:21:28.175Z,5.60
2019-04-04T00:22:28.155Z,5.10
2019-04-04T00:23:28.138Z,5.20
2019-04-04T00:24:28.112Z,5.40
2019-04-04T00:25:28.099Z,5.30
2019-04-04T00:26:28.134Z,5.00
2019-04-04T00:27:28.092Z,5.20
2019-04-04T00:28:28.091Z,5.10
2019-04-04T00:29:28.059Z,4.90
2019-04-04T00:30:28.044Z,5.30
2019-04-04T00:31:28.036Z,5.00
2019-04-04T00:32:28.048Z,5.50
2019-04-04T00:33:28.049Z,4.80
2019-04-04T00:34:28.738Z,5.30
2019-04-04T00:35:29.072Z,5.30
2019-04-04T00:36:27.977Z,4.80
2019-04-04T00:37:28.002Z,5.10
2019-04-04T00:38:27.984Z,4.90
2019-04-04T00:39:27.972Z,5.20
2019-04-04T00:40:27.929Z,4.90
2019-04-04T00:41:27.920Z,5.10
2019-04-04T00:42:27.922Z,4.70
2019-04-04T00:43:27.925Z,5.20
2019-04-04T00:44:27.896Z,5.10
2019-04-04T00:45:28.991Z,5.00
2019-04-04T00:46:29.049Z,5.00
2019-04-04T00:47:27.859Z,5.00
2019-04-04T00:48:27.861Z,5.30
2019-04-04T00:49:27.844Z,5.10
2019-04-04T00:50:27.834Z,4.90
2019-04-04T00:51:27.843Z,4.80
2019-04-04T00:52:27.802Z,5.40
2019-04-04T00:53:27.787Z,5.10
2019-04-04T00:54:27.787Z,5.30
2019-04-04T00:55:27.782Z,5.50
2019-04-04T00:56:27.783Z,5.30
2019-04-04T00:57:28.408Z,5.30
2019-04-04T00:58:27.736Z,5.50
2019-04-04T00:59:27.739Z,5.50
2019-04-04T01:00:27.734Z,5.50
2019-04-04T01:01:28.413Z,5.50
2019-04-04T01:02:27.982Z,5.30
2019-04-04T01:03:28.089Z,5.10
2019-04-04T01:04:30.839Z,5.70
2019-04-04T01:05:27.660Z,4.90
2019-04-04T01:06:27.658Z,5.40
2019-04-04T01:07:27.651Z,5.90
2019-04-04T01:08:27.663Z,5.70
2019-04-04T01:09:27.645Z,5.90
2019-04-04T01:10:27.599Z,5.80
2019-04-04T01:11:27.591Z,5.90
2019-04-04T01:12:27.583Z,6.20
2019-04-04T01:13:27.838Z,5.50
2019-04-04T01:14:29.325Z,5.80
2019-04-04T01:15:30.797Z,5.40
2019-04-04T01:16:27.557Z,5.70
2019-04-04T01:17:27.525Z,6.40
2019-04-04T01:18:27.524Z,6.00
2019-04-04T01:19:27.511Z,6.00
2019-04-04T01:20:27.518Z,6.50
2019-04-04T01:21:27.478Z,6.60
2019-04-04T01:22:27.477Z,6.40
2019-04-04T01:23:27.699Z,6.30
2019-04-04T01:24:29.122Z,6.60
2019-04-04T01:25:27.451Z,6.10
2019-04-04T01:26:27.484Z,6.40
2019-04-04T01:27:27.449Z,6.40
2019-04-04T01:28:27.402Z,6.20
2019-04-04T01:29:27.394Z,6.40
2019-04-04T01:30:27.393Z,6.70
2019-04-04T01:31:27.386Z,6.60
2019-04-04T01:32:27.387Z,6.50
2019-04-04T01:33:27.357Z,6.40
2019-04-04T01:34:27.349Z,6.40
2019-04-04T01:35:27.330Z,6.30
2019-04-04T01:36:27.335Z,6.40
2019-04-04T01:37:27.881Z,6.40
2019-04-04T01:38:29.141Z,6.90
2019-04-04T01:39:29.028Z,6.50
2019-04-04T01:40:27.274Z,6.60
2019-04-04T01:41:27.277Z,6.80
2019-04-04T01:42:27.268Z,7.00
2019-04-04T01:43:27.269Z,6.40
2019-04-04T01:44:27.227Z,6.80
2019-04-04T01:45:27.217Z,6.70
2019-04-04T01:46:27.199Z,7.10
2019-04-04T01:47:27.212Z,7.20
2019-04-04T01:48:27.196Z,7.20
2019-04-04T01:49:27.223Z,7.80
2019-04-04T01:50:27.153Z,6.80
2019-04-04T01:51:27.140Z,7.00
2019-04-04T01:52:28.676Z,7.20
2019-04-04T01:53:28.136Z,8.00
2019-04-04T01:54:27.140Z,7.30
2019-04-04T01:55:27.133Z,7.50
2019-04-04T01:56:27.102Z,7.10
2019-04-04T01:57:27.086Z,7.60
2019-04-04T01:58:27.083Z,7.20
2019-04-04T01:59:27.073Z,7.80
2019-04-04T02:00:27.082Z,7.50
2019-04-04T02:01:27.914Z,7.30
2019-04-04T02:02:27.021Z,7.50
2019-04-04T02:03:27.012Z,7.20
2019-04-04T02:04:27.012Z,7.20
2019-04-04T02:05:27.613Z,7.90
2019-04-04T02:06:28.442Z,7.40
2019-04-04T02:07:27.791Z,7.30
2019-04-04T02:08:26.957Z,7.60
2019-04-04T02:09:26.943Z,7.10
2019-04-04T02:10:26.948Z,7.30
2019-04-04T02:11:26.962Z,7.40
2019-04-04T02:12:26.930Z,7.60
2019-04-04T02:13:26.944Z,7.60
2019-04-04T02:14:26.888Z,7.90
2019-04-04T02:15:26.882Z,7.50
2019-04-04T02:16:26.877Z,7.90
2019-04-04T02:17:26.891Z,7.70
2019-04-04T02:18:26.867Z,7.50
2019-04-04T02:19:26.881Z,8.00
2019-04-04T02:20:27.447Z,8.40
2019-04-04T02:21:28.537Z,8.00
2019-04-04T02:22:26.827Z,8.20
2019-04-04T02:23:26.799Z,8.10
2019-04-04T02:24:26.796Z,8.50
2019-04-04T02:25:26.767Z,8.40
2019-04-04T02:26:26.759Z,7.90
2019-04-04T02:27:26.744Z,8.60
2019-04-04T02:28:26.759Z,8.20
2019-04-04T02:29:26.734Z,7.90
2019-04-04T02:30:26.712Z,7.90
2019-04-04T02:31:26.702Z,7.60
2019-04-04T02:32:27.684Z,8.20
2019-04-04T02:33:27.013Z,7.90
2019-04-04T02:34:26.672Z,8.40
2019-04-04T02:35:26.673Z,8.20
2019-04-04T02:36:26.652Z,7.90
2019-04-04T02:37:26.627Z,8.80
2019-04-04T02:38:27.982Z,8.70
2019-04-04T02:39:26.645Z,8.40
2019-04-04T02:40:26.625Z,8.30
2019-04-04T02:41:26.611Z,8.70
2019-04-04T02:42:26.589Z,8.10
2019-04-04T02:43:28.278Z,9.30
2019-04-04T02:44:26.583Z,8.90
2019-04-04T02:45:26.562Z,9.40
2019-04-04T02:46:26.550Z,8.70
2019-04-04T02:47:26.565Z,8.70
2019-04-04T02:48:26.507Z,9.50
2019-04-04T02:49:29.250Z,9.10
2019-04-04T02:50:26.509Z,8.50
2019-04-04T02:51:26.487Z,8.80
2019-04-04T02:52:26.506Z,8.80
2019-04-04T02:53:26.457Z,9.40
2019-04-04T02:54:26.445Z,9.30
2019-04-04T02:55:29.774Z,8.70
2019-04-04T02:56:26.428Z,8.80
2019-04-04T02:57:26.428Z,8.50
2019-04-04T02:58:26.443Z,8.60
2019-04-04T02:59:26.419Z,9.00
2019-04-04T03:00:27.694Z,10.00
2019-04-04T03:01:26.377Z,9.00
2019-04-04T03:02:26.408Z,9.30
2019-04-04T03:03:26.348Z,9.10
2019-04-04T03:04:26.361Z,8.90
2019-04-04T03:05:26.368Z,8.30
2019-04-04T03:06:26.312Z,9.90
2019-04-04T03:07:29.881Z,9.00
2019-04-04T03:08:26.295Z,8.90
2019-04-04T03:09:26.286Z,9.10
2019-04-04T03:10:26.285Z,9.80
2019-04-04T03:11:26.256Z,9.50
2019-04-04T03:12:27.033Z,9.00
2019-04-04T03:13:26.266Z,8.90
2019-04-04T03:14:26.227Z,9.10
2019-04-04T03:15:26.225Z,9.20
2019-04-04T03:16:26.229Z,9.10
2019-04-04T03:17:26.207Z,9.30
2019-04-04T03:18:26.186Z,9.40
2019-04-04T03:19:26.189Z,9.20
2019-04-04T03:20:26.166Z,9.30
2019-04-04T03:21:26.193Z,9.10
2019-04-04T03:22:27.562Z,8.70
2019-04-04T03:23:26.179Z,9.00
2019-04-04T03:24:26.114Z,8.90
2019-04-04T03:25:26.096Z,9.30
2019-04-04T03:26:26.106Z,9.70
2019-04-04T03:27:27.203Z,9.10
2019-04-04T03:28:26.100Z,9.60
2019-04-04T03:29:26.070Z,9.40
2019-04-04T03:30:26.048Z,9.30
2019-04-04T03:31:26.047Z,9.60
2019-04-04T03:32:26.041Z,9.80
2019-04-04T03:33:31.337Z,9.70
2019-04-04T03:34:27.022Z,9.80
2019-04-04T03:35:28.458Z,9.60
2019-04-04T03:36:25.984Z,9.80
2019-04-04T03:37:25.985Z,9.80
2019-04-04T03:38:25.967Z,10.40
2019-04-04T03:39:25.968Z,11.20
2019-04-04T03:40:26.055Z,9.80
2019-04-04T03:41:27.559Z,9.80
2019-04-04T03:42:25.908Z,9.80
2019-04-04T03:43:25.912Z,10.40
2019-04-04T03:44:25.949Z,11.20
2019-04-04T03:45:27.266Z,10.30
2019-04-04T03:46:25.864Z,10.30
2019-04-04T03:47:25.868Z,10.60
2019-04-04T03:48:25.851Z,10.30
2019-04-04T03:49:25.850Z,11.40
2019-04-04T03:50:29.144Z,10.10
2019-04-04T03:51:25.816Z,10.80
2019-04-04T03:52:25.802Z,11.20
2019-04-04T03:53:25.801Z,10.50
2019-04-04T03:54:25.776Z,12.60
2019-04-04T03:55:27.811Z,10.60
2019-04-04T03:56:25.794Z,11.30
2019-04-04T03:57:25.744Z,10.80
2019-04-04T03:58:27.905Z,12.00
2019-04-04T03:59:25.721Z,12.80
2019-04-04T04:00:25.713Z,12.00
2019-04-04T04:01:25.706Z,11.10
2019-04-04T04:02:25.724Z,11.80
2019-04-04T04:03:25.681Z,12.00
2019-04-04T04:04:28.176Z,11.80
2019-04-04T04:05:25.648Z,12.10
2019-04-04T04:06:25.644Z,12.40
2019-04-04T04:07:25.664Z,13.80
2019-04-04T04:08:25.652Z,15.90
2019-04-04T04:09:26.369Z,15.40
2019-04-04T04:10:25.601Z,14.80
2019-04-04T04:11:25.591Z,15.30
2019-04-04T04:12:25.592Z,14.90
2019-04-04T04:13:25.583Z,14.90
2019-04-04T04:14:25.586Z,14.40
2019-04-04T04:15:29.048Z,15.20
2019-04-04T04:16:25.532Z,15.50
2019-04-04T04:17:25.588Z,14.60
2019-04-04T04:18:25.540Z,15.80
2019-04-04T04:19:30.101Z,16.60
2019-04-04T04:20:25.522Z,16.80
2019-04-04T04:21:25.506Z,16.20
2019-04-04T04:22:26.399Z,15.70
2019-04-04T04:23:25.457Z,15.80
2019-04-04T04:24:26.740Z,16.30
2019-04-04T04:25:25.452Z,17.20
2019-04-04T04:26:25.428Z,18.20
2019-04-04T04:27:25.423Z,17.00
2019-04-04T04:28:25.391Z,16.50
2019-04-04T04:29:29.382Z,15.20
2019-04-04T04:30:25.381Z,16.70
2019-04-04T04:31:25.380Z,17.30
2019-04-04T04:32:25.375Z,17.90
2019-04-04T04:33:28.933Z,18.80
2019-04-04T04:34:25.330Z,17.90
2019-04-04T04:35:25.340Z,16.80
2019-04-04T04:36:25.323Z,16.00
2019-04-04T04:37:25.327Z,17.10
2019-04-04T04:38:26.739Z,17.70
2019-04-04T04:39:25.305Z,18.80
2019-04-04T04:40:25.288Z,17.80
2019-04-04T04:41:25.276Z,18.00
2019-04-04T04:42:26.592Z,17.30
2019-04-04T04:43:25.223Z,18.40
2019-04-04T04:44:25.224Z,19.50
2019-04-04T04:45:25.211Z,19.90
2019-04-04T04:46:25.202Z,19.20
2019-04-04T04:47:25.274Z,18.30
2019-04-04T04:48:26.053Z,19.10
2019-04-04T04:49:25.198Z,19.10
2019-04-04T04:50:25.153Z,18.20
2019-04-04T04:51:25.163Z,19.70
2019-04-04T04:52:25.127Z,19.80
2019-04-04T04:53:25.146Z,19.70
2019-04-04T04:54:25.133Z,19.20
2019-04-04T04:55:27.188Z,19.00
2019-04-04T04:56:25.092Z,20.80
2019-04-04T04:57:29.818Z,21.40
2019-04-04T04:58:26.083Z,21.20
2019-04-04T04:59:25.063Z,21.20
2019-04-04T05:00:27.551Z,21.10
2019-04-04T05:01:25.028Z,21.40
2019-04-04T05:02:25.042Z,22.10
2019-04-04T05:03:25.005Z,21.10
2019-04-04T05:04:27.824Z,22.10
2019-04-04T05:05:24.995Z,23.00
2019-04-04T05:06:24.988Z,22.50
2019-04-04T05:07:24.961Z,22.10
2019-04-04T05:08:24.952Z,22.50
2019-04-04T05:09:24.935Z,21.90
2019-04-04T05:10:24.942Z,23.20
2019-04-04T05:11:24.935Z,21.70
2019-04-04T05:12:24.931Z,21.70
2019-04-04T05:13:28.583Z,21.40
2019-04-04T05:14:24.886Z,22.80
2019-04-04T05:15:24.874Z,18.80
2019-04-04T05:16:24.872Z,18.80
2019-04-04T05:17:24.867Z,19.50
2019-04-04T05:18:24.833Z,19.10
2019-04-04T05:19:24.831Z,19.80
2019-04-04T05:20:25.631Z,19.40
2019-04-04T05:21:28.532Z,19.50
2019-04-04T05:22:24.812Z,19.60
2019-04-04T05:23:24.826Z,19.30
2019-04-04T05:24:24.808Z,19.70
2019-04-04T05:25:24.785Z,18.80
2019-04-04T05:26:24.780Z,19.10
2019-04-04T05:27:24.743Z,18.20
2019-04-04T05:28:24.738Z,18.70
2019-04-04T05:29:24.731Z,17.60
2019-04-04T05:30:24.733Z,17.60
2019-04-04T05:31:24.691Z,17.60
2019-04-04T05:32:24.677Z,20.40
2019-04-04T05:33:26.935Z,18.30
2019-04-04T05:34:24.673Z,18.20
2019-04-04T05:35:24.695Z,17.40
2019-04-04T05:36:24.638Z,18.80
2019-04-04T05:37:27.384Z,16.90
2019-04-04T05:38:24.609Z,16.40
2019-04-04T05:39:24.620Z,17.70
2019-04-04T05:40:24.631Z,18.00
2019-04-04T05:41:27.086Z,17.50
2019-04-04T05:42:24.596Z,18.50
2019-04-04T05:43:24.558Z,17.30
2019-04-04T05:44:24.558Z,17.70
2019-04-04T05:45:24.555Z,17.40
2019-04-04T05:46:24.554Z,18.60
2019-04-04T05:47:24.540Z,18.00
2019-04-04T05:48:24.499Z,17.70
2019-04-04T05:49:24.491Z,18.40
2019-04-04T05:50:24.486Z,16.90
2019-04-04T05:51:24.514Z,17.20
2019-04-04T05:52:24.484Z,17.00
2019-04-04T05:53:24.467Z,17.90
2019-04-04T05:54:24.435Z,18.20
2019-04-04T05:55:24.424Z,16.30
2019-04-04T05:56:24.552Z,16.90
2019-04-04T05:57:24.427Z,17.90
2019-04-04T05:58:24.414Z,17.80
2019-04-04T05:59:24.518Z,17.10
2019-04-04T06:00:26.977Z,17.50
2019-04-04T06:01:24.401Z,18.40
2019-04-04T06:02:24.420Z,17.20
2019-04-04T06:03:24.352Z,17.20
2019-04-04T06:04:24.375Z,18.00
2019-04-04T06:05:26.860Z,17.70
2019-04-04T06:06:24.302Z,16.10
2019-04-04T06:07:24.312Z,16.60
2019-04-04T06:08:24.365Z,16.00
2019-04-04T06:09:24.284Z,19.20
2019-04-04T06:10:24.309Z,17.90
2019-04-04T06:11:24.259Z,17.90
2019-04-04T06:12:25.029Z,17.00
2019-04-04T06:13:26.716Z,17.80
2019-04-04T06:14:24.235Z,17.00
2019-04-04T06:15:24.219Z,17.00
2019-04-04T06:16:24.223Z,17.90
2019-04-04T06:17:26.937Z,17.20
2019-04-04T06:18:24.189Z,17.50
2019-04-04T06:19:24.157Z,16.20
2019-04-04T06:20:24.166Z,17.40
2019-04-04T06:21:24.156Z,17.20
2019-04-04T06:22:24.148Z,17.40
2019-04-04T06:23:25.052Z,16.70
2019-04-04T06:24:25.160Z,16.00
2019-04-04T06:25:24.096Z,15.80
2019-04-04T06:26:24.098Z,16.10
2019-04-04T06:27:24.089Z,16.90
2019-04-04T06:28:24.060Z,17.80
2019-04-04T06:29:24.062Z,16.40
2019-04-04T06:30:24.034Z,18.20
2019-04-04T06:31:26.205Z,16.80
2019-04-04T06:32:24.024Z,16.90
2019-04-04T06:33:24.037Z,17.70
2019-04-04T06:34:24.209Z,18.00
2019-04-04T06:35:23.991Z,17.00
2019-04-04T06:36:23.969Z,16.30
2019-04-04T06:37:23.962Z,17.20
2019-04-04T06:38:24.160Z,17.70
2019-04-04T06:39:25.148Z,16.10
2019-04-04T06:40:23.931Z,16.30
2019-04-04T06:41:27.923Z,16.00
2019-04-04T06:42:23.920Z,15.40
2019-04-04T06:43:23.926Z,15.70
2019-04-04T06:44:23.903Z,15.20
2019-04-04T06:45:23.891Z,15.20
2019-04-04T06:46:23.858Z,16.60
2019-04-04T06:47:25.499Z,15.00
2019-04-04T06:48:23.858Z,14.50
2019-04-04T06:49:23.845Z,17.60
2019-04-04T06:50:23.838Z,14.80
2019-04-04T06:51:23.803Z,14.80
2019-04-04T06:52:23.805Z,14.70
2019-04-04T06:53:23.839Z,14.60
2019-04-04T06:54:25.697Z,14.60
2019-04-04T06:55:23.779Z,14.50
2019-04-04T06:56:23.766Z,14.90
2019-04-04T06:57:23.739Z,15.10
2019-04-04T06:58:23.724Z,13.80
2019-04-04T06:59:23.742Z,14.90
2019-04-04T07:00:23.702Z,14.30
2019-04-04T07:01:25.360Z,14.00
2019-04-04T07:02:23.950Z,14.50
2019-04-04T07:03:27.041Z,14.40
2019-04-04T07:04:23.718Z,14.90
2019-04-04T07:05:23.730Z,14.40
2019-04-04T07:06:23.646Z,14.40
2019-04-04T07:07:23.653Z,14.60
2019-04-04T07:08:23.629Z,14.40
2019-04-04T07:09:23.638Z,14.30
2019-04-04T07:10:23.600Z,14.90
2019-04-04T07:11:23.582Z,14.30
2019-04-04T07:12:28.287Z,15.20
2019-04-04T07:13:27.065Z,15.00
2019-04-04T07:14:23.544Z,13.90
2019-04-04T07:15:23.537Z,15.20
2019-04-04T07:16:23.526Z,14.50
2019-04-04T07:17:23.522Z,14.70
2019-04-04T07:18:23.535Z,15.90
2019-04-04T07:19:23.536Z,15.00
2019-04-04T07:20:23.501Z,17.30
2019-04-04T07:21:23.483Z,17.60
2019-04-04T07:22:24.920Z,14.80
2019-04-04T07:23:27.237Z,15.60
2019-04-04T07:24:23.491Z,15.80
2019-04-04T07:25:23.447Z,15.00
2019-04-04T07:26:23.450Z,14.90
2019-04-04T07:27:23.402Z,16.50
2019-04-04T07:28:23.391Z,16.50
2019-04-04T07:29:25.294Z,15.20
2019-04-04T07:30:23.397Z,16.20
2019-04-04T07:31:23.378Z,15.80
2019-04-04T07:32:23.385Z,15.50
2019-04-04T07:33:23.336Z,15.80
2019-04-04T07:34:23.325Z,15.50
2019-04-04T07:35:23.348Z,15.40
2019-04-04T07:36:23.327Z,15.10
2019-04-04T07:37:23.315Z,14.90
2019-04-04T07:38:23.280Z,15.00
2019-04-04T07:39:23.269Z,14.60
2019-04-04T07:40:23.282Z,15.50
2019-04-04T07:41:23.259Z,14.60
2019-04-04T07:42:23.258Z,14.70
2019-04-04T07:43:23.258Z,14.60
2019-04-04T07:44:23.938Z,15.50
2019-04-04T07:45:26.741Z,14.50
2019-04-04T07:46:23.193Z,15.00
2019-04-04T07:47:23.192Z,14.60
2019-04-04T07:48:23.207Z,14.70
2019-04-04T07:49:23.862Z,14.70
2019-04-04T07:50:24.157Z,14.30
2019-04-04T07:51:23.136Z,14.20
2019-04-04T07:52:23.125Z,14.60
2019-04-04T07:53:23.139Z,14.90
2019-04-04T07:54:23.124Z,14.70
2019-04-04T07:55:23.114Z,14.10
2019-04-04T07:56:23.090Z,14.70
2019-04-04T07:57:23.067Z,14.00
2019-04-04T07:58:23.058Z,15.70
2019-04-04T07:59:23.073Z,14.20
2019-04-04T08:00:23.056Z,14.30
2019-04-04T08:01:23.027Z,14.40
2019-04-04T08:02:23.020Z,14.40
2019-04-04T08:03:23.002Z,14.20
2019-04-04T08:04:23.011Z,14.50
2019-04-04T08:05:22.995Z,14.70
2019-04-04T08:06:22.983Z,13.80
2019-04-04T08:07:22.962Z,13.90
2019-04-04T08:08:22.952Z,13.90
2019-04-04T08:09:25.984Z,14.60
2019-04-04T08:10:22.934Z,14.90
2019-04-04T08:11:22.933Z,16.30
2019-04-04T08:12:22.913Z,14.00
2019-04-04T08:13:22.922Z,14.30
2019-04-04T08:14:22.931Z,14.20
2019-04-04T08:15:22.886Z,14.20
2019-04-04T08:16:22.879Z,14.00
2019-04-04T08:17:22.857Z,14.50
2019-04-04T08:18:22.855Z,14.00
2019-04-04T08:19:22.825Z,14.30
2019-04-04T08:20:22.838Z,14.70
2019-04-04T08:21:22.800Z,15.10
2019-04-04T08:22:22.981Z,14.60
2019-04-04T08:23:22.798Z,13.90
2019-04-04T08:24:22.787Z,15.20
2019-04-04T08:25:22.799Z,14.20
2019-04-04T08:26:22.791Z,14.50
2019-04-04T08:27:22.735Z,14.00
2019-04-04T08:28:22.740Z,13.40
2019-04-04T08:29:22.728Z,14.00
2019-04-04T08:30:22.728Z,13.80
2019-04-04T08:31:22.702Z,14.60
2019-04-04T08:32:22.678Z,14.40
2019-04-04T08:33:22.669Z,13.70
2019-04-04T08:34:22.680Z,14.40
2019-04-04T08:35:22.654Z,16.10
2019-04-04T08:36:22.671Z,14.20
2019-04-04T08:37:22.625Z,14.70
2019-04-04T08:38:22.614Z,13.50
2019-04-04T08:39:22.605Z,15.50
2019-04-04T08:40:22.619Z,13.90
2019-04-04T08:41:22.602Z,14.70
2019-04-04T08:42:22.977Z,15.10
2019-04-04T08:43:22.559Z,12.90
2019-04-04T08:44:22.568Z,12.90
2019-04-04T08:45:22.540Z,13.80
2019-04-04T08:46:23.465Z,13.20
2019-04-04T08:47:22.546Z,13.80
2019-04-04T08:48:22.531Z,12.50
2019-04-04T08:49:22.543Z,13.70
2019-04-04T08:50:22.485Z,12.80
2019-04-04T08:51:22.471Z,13.70
2019-04-04T08:52:22.480Z,13.50
2019-04-04T08:53:22.465Z,13.30
2019-04-04T08:54:22.491Z,13.50
2019-04-04T08:55:22.434Z,13.10
2019-04-04T08:56:22.424Z,13.10
2019-04-04T08:57:22.410Z,13.60
2019-04-04T08:58:22.416Z,13.70
2019-04-04T08:59:22.401Z,13.00
2019-04-04T09:00:22.380Z,14.00
2019-04-04T09:01:22.367Z,13.30
2019-04-04T09:02:22.366Z,12.80
2019-04-04T09:03:22.352Z,13.10
2019-04-04T09:04:24.006Z,13.90
2019-04-04T09:05:22.339Z,12.90
2019-04-04T09:06:22.302Z,13.20
2019-04-04T09:07:22.296Z,13.10
2019-04-04T09:08:22.279Z,13.30
2019-04-04T09:09:22.292Z,12.90
2019-04-04T09:10:22.285Z,13.10
2019-04-04T09:11:22.242Z,15.10
2019-04-04T09:12:22.239Z,13.80
2019-04-04T09:13:22.225Z,13.70
2019-04-04T09:14:22.218Z,14.00
2019-04-04T09:15:22.236Z,13.40
2019-04-04T09:16:22.210Z,13.70
2019-04-04T09:17:22.179Z,14.10
2019-04-04T09:18:22.170Z,13.70
2019-04-04T09:19:22.163Z,13.90
2019-04-04T09:20:22.152Z,13.60
2019-04-04T09:21:22.159Z,14.10
2019-04-04T09:22:24.159Z,15.10
2019-04-04T09:23:22.150Z,14.10
2019-04-04T09:24:22.111Z,13.90
2019-04-04T09:25:22.107Z,13.70
2019-04-04T09:26:22.082Z,13.50
2019-04-04T09:27:22.080Z,13.60
2019-04-04T09:28:22.086Z,14.30
2019-04-04T09:29:22.079Z,12.70
2019-04-04T09:30:22.055Z,13.30
2019-04-04T09:31:22.027Z,14.50
2019-04-04T09:32:22.023Z,13.90
2019-04-04T09:33:22.015Z,13.70
2019-04-04T09:34:22.022Z,13.60
2019-04-04T09:35:22.023Z,14.20
2019-04-04T09:36:21.970Z,14.00
2019-04-04T09:37:21.971Z,14.00
2019-04-04T09:38:21.951Z,14.90
2019-04-04T09:39:21.947Z,15.10
2019-04-04T09:40:21.974Z,14.10
2019-04-04T09:41:21.919Z,14.10
2019-04-04T09:42:21.902Z,14.60
2019-04-04T09:43:21.898Z,14.30
2019-04-04T09:44:21.895Z,14.20
2019-04-04T09:45:21.879Z,14.20
2019-04-04T09:46:21.878Z,15.50
2019-04-04T09:47:21.850Z,15.00
2019-04-04T09:48:21.838Z,15.20
2019-04-04T09:49:21.822Z,14.00
2019-04-04T09:50:21.835Z,15.00
2019-04-04T09:51:21.831Z,15.30
2019-04-04T09:52:21.815Z,14.60
2019-04-04T09:53:21.784Z,14.80
2019-04-04T09:54:21.770Z,14.50
2019-04-04T09:55:21.758Z,15.10
2019-04-04T09:56:21.774Z,14.30
2019-04-04T09:57:21.763Z,14.60
2019-04-04T09:58:21.722Z,14.80
2019-04-04T09:59:21.716Z,14.50
2019-04-04T10:00:21.705Z,14.10
2019-04-04T10:01:21.695Z,14.60
2019-04-04T10:02:21.707Z,14.50
2019-04-04T10:03:21.690Z,14.30
2019-04-04T10:04:21.692Z,14.20
2019-04-04T10:05:21.643Z,13.90
2019-04-04T10:06:21.638Z,14.80
2019-04-04T10:07:21.636Z,14.30
2019-04-04T10:08:21.711Z,14.30
2019-04-04T10:09:21.631Z,14.50
2019-04-04T10:10:21.586Z,14.00
2019-04-04T10:11:21.580Z,13.90
2019-04-04T10:12:21.568Z,14.70
2019-04-04T10:13:21.577Z,14.70
2019-04-04T10:14:22.816Z,14.70
2019-04-04T10:15:21.574Z,15.10
2019-04-04T10:16:21.524Z,15.10
2019-04-04T10:17:21.511Z,15.20
2019-04-04T10:18:21.504Z,14.50
2019-04-04T10:19:21.507Z,14.20
2019-04-04T10:20:21.497Z,14.50
2019-04-04T10:21:21.518Z,14.20
2019-04-04T10:22:21.453Z,14.00
2019-04-04T10:23:21.449Z,14.40
2019-04-04T10:24:21.444Z,14.90
2019-04-04T10:25:21.459Z,13.80
2019-04-04T10:26:21.441Z,16.10
2019-04-04T10:27:21.437Z,14.40
2019-04-04T10:28:23.330Z,14.50
2019-04-04T10:29:21.383Z,14.30
2019-04-04T10:30:21.398Z,14.00
2019-04-04T10:31:21.391Z,14.40
2019-04-04T10:32:21.370Z,14.90
2019-04-04T10:33:21.360Z,14.20
2019-04-04T10:34:21.332Z,14.10
2019-04-04T10:35:21.326Z,13.90
2019-04-04T10:36:21.324Z,14.60
2019-04-04T10:37:21.326Z,14.90
2019-04-04T10:38:21.309Z,14.50
2019-04-04T10:39:28.887Z,15.10
2019-04-04T10:40:22.263Z,14.80
2019-04-04T10:41:21.258Z,13.90
2019-04-04T10:42:21.239Z,14.30
2019-04-04T10:43:21.233Z,14.60
2019-04-04T10:44:21.239Z,13.90
2019-04-04T10:45:21.206Z,14.10
2019-04-04T10:46:21.297Z,14.40
2019-04-04T10:47:21.180Z,14.70
2019-04-04T10:48:21.177Z,14.50
2019-04-04T10:49:21.169Z,13.90
2019-04-04T10:50:21.164Z,14.10
2019-04-04T10:51:21.130Z,14.10
2019-04-04T10:52:21.133Z,14.30
2019-04-04T10:53:21.118Z,14.10
2019-04-04T10:54:21.117Z,14.20
2019-04-04T10:55:21.099Z,13.40
2019-04-04T10:56:21.103Z,14.50
2019-04-04T10:57:21.077Z,13.90
2019-04-04T10:58:21.053Z,13.30
2019-04-04T10:59:21.052Z,13.30
2019-04-04T11:00:21.044Z,13.90
2019-04-04T11:01:21.036Z,13.40
2019-04-04T11:02:21.037Z,13.70
2019-04-04T11:03:20.997Z,14.20
2019-04-04T11:04:20.984Z,14.60
2019-04-04T11:05:20.995Z,15.30
2019-04-04T11:06:20.972Z,15.40
2019-04-04T11:07:20.969Z,16.70
2019-04-04T11:08:20.950Z,15.50
2019-04-04T11:09:20.931Z,15.90
2019-04-04T11:10:20.919Z,17.40
2019-04-04T11:11:20.919Z,16.90
2019-04-04T11:12:20.925Z,17.60
2019-04-04T11:13:32.868Z,17.40
2019-04-04T11:14:21.889Z,17.80
2019-04-04T11:15:20.882Z,18.50
2019-04-04T11:16:30.031Z,18.10
2019-04-04T11:17:20.870Z,19.50
2019-04-04T11:18:20.884Z,19.20
2019-04-04T11:19:30.625Z,20.40
2019-04-04T11:20:20.816Z,19.20
2019-04-04T11:21:20.807Z,20.10
2019-04-04T11:22:20.828Z,19.60
2019-04-04T11:23:20.803Z,19.90
2019-04-04T11:24:20.807Z,20.30
2019-04-04T11:25:20.850Z,20.80
2019-04-04T11:26:20.749Z,20.20
2019-04-04T11:27:20.729Z,21.80
2019-04-04T11:28:20.757Z,21.00
2019-04-04T11:29:20.724Z,21.60
2019-04-04T11:30:20.710Z,22.40
2019-04-04T11:31:20.713Z,21.40
2019-04-04T11:32:21.504Z,22.10
2019-04-04T11:33:20.669Z,21.90
2019-04-04T11:34:20.653Z,21.20
2019-04-04T11:35:20.652Z,21.60
2019-04-04T11:36:20.653Z,21.40
2019-04-04T11:37:20.647Z,21.40
2019-04-04T11:38:21.019Z,21.90
2019-04-04T11:39:20.595Z,21.00
2019-04-04T11:40:20.587Z,21.50
2019-04-04T11:41:20.630Z,21.00
2019-04-04T11:42:20.585Z,21.10
2019-04-04T11:43:20.585Z,21.50
2019-04-04T11:44:20.599Z,21.10
2019-04-04T11:45:20.535Z,21.20
2019-04-04T11:46:20.545Z,20.30
2019-04-04T11:47:20.535Z,21.80
2019-04-04T11:48:20.524Z,21.50
2019-04-04T11:49:20.491Z,22.00
2019-04-04T11:50:20.489Z,22.80
2019-04-04T11:51:20.464Z,21.70
2019-04-04T11:52:20.465Z,22.50
2019-04-04T11:53:20.476Z,23.10
2019-04-04T11:54:20.452Z,22.30
2019-04-04T11:55:20.459Z,22.10
2019-04-04T11:56:20.429Z,22.00
2019-04-04T11:57:20.397Z,22.20
2019-04-04T11:58:20.395Z,22.30
2019-04-04T11:59:20.431Z,22.30
2019-04-04T12:00:20.392Z,22.00
2019-04-04T12:01:20.388Z,22.30
2019-04-04T12:02:20.398Z,22.40
2019-04-04T12:03:20.354Z,22.50
2019-04-04T12:04:20.343Z,22.10
2019-04-04T12:05:20.344Z,22.80
2019-04-04T12:06:20.301Z,22.50
2019-04-04T12:07:20.299Z,22.50
2019-04-04T12:08:20.299Z,22.10
2019-04-04T12:09:20.280Z,21.50
2019-04-04T12:10:20.272Z,21.70
2019-04-04T12:11:22.665Z,22.70
2019-04-04T12:12:20.231Z,23.20
2019-04-04T12:13:20.243Z,21.60
2019-04-04T12:14:20.213Z,21.20
2019-04-04T12:15:20.205Z,22.50
2019-04-04T12:16:20.213Z,21.50
2019-04-04T12:17:20.245Z,22.40
2019-04-04T12:18:20.167Z,22.00
2019-04-04T12:19:20.154Z,22.00
2019-04-04T12:20:20.151Z,21.90
2019-04-04T12:21:20.163Z,21.40
2019-04-04T12:22:20.167Z,21.90
2019-04-04T12:23:20.156Z,22.30
2019-04-04T12:24:20.133Z,22.60
2019-04-04T12:25:20.092Z,23.10
2019-04-04T12:26:20.083Z,21.90
2019-04-04T12:27:20.078Z,21.80
2019-04-04T12:28:20.064Z,21.60
2019-04-04T12:29:20.073Z,21.90
2019-04-04T12:30:20.874Z,21.50
2019-04-04T12:31:20.025Z,21.60
2019-04-04T12:32:20.011Z,22.80
2019-04-04T12:33:20.004Z,21.50
2019-04-04T12:34:20.003Z,22.00
2019-04-04T12:35:20.005Z,21.80
2019-04-04T12:36:24.935Z,22.30
2019-04-04T12:37:20.979Z,21.80
2019-04-04T12:38:20.033Z,21.20
2019-04-04T12:39:19.950Z,22.10
2019-04-04T12:40:21.286Z,21.70
2019-04-04T12:41:19.938Z,21.60
2019-04-04T12:42:20.144Z,22.60
2019-04-04T12:43:19.885Z,21.40
2019-04-04T12:44:19.889Z,21.70
2019-04-04T12:45:19.878Z,21.90
2019-04-04T12:46:19.871Z,21.70
2019-04-04T12:47:19.842Z,21.80
2019-04-04T12:48:19.843Z,21.80
2019-04-04T12:49:19.824Z,22.30
2019-04-04T12:50:19.810Z,21.80
2019-04-04T12:51:19.813Z,21.90
2019-04-04T12:52:19.800Z,24.40
2019-04-04T12:53:19.811Z,22.00
2019-04-04T12:54:19.781Z,22.10
2019-04-04T12:55:19.751Z,21.20
2019-04-04T12:56:20.061Z,21.80
2019-04-04T12:57:19.748Z,21.50
2019-04-04T12:58:19.733Z,22.60
2019-04-04T12:59:19.745Z,21.50